Terminal Aerodrome Forecast
Issued by NWS

Home | Current Version | Previous Version | Text Only | Print | Product List | Glossary On
Versions: 1 2 3 4 5 6 7 8 9 10 11 12 13 14 15
000
FTUS45 KRIW 181726
TAFPNA
TAF
KPNA 181726Z 1818/1918 VRB05KT P6SM SCT250
     FM190400 29005KT P6SM BKN110
     FM190900 VRB04KT P6SM BKN060
      AMD LTD TO CLD VIS AND WIND=

USA.gov is the U.S. government's official web portal to all federal, state and local government web resources and services.